Time;durP1;ratioP1;P1;durP2;ratioP2;P2;SDS_P1;SDS_P2;PMS_P1;PMS_P2;Temp;Humidity;BMP_temperature;BMP_pressure;BME280_temperature;BME280_humidity;BME280_pressure;Samples;Min_cycle;Max_cycle;Signal;HPM_P1;HPM_P2
2022/08/12 00:44:18;;;;;;;;;7.75;7.75;;;;;;;;4948736;28;45466;-77
2022/08/12 00:46:46;;;;;;;;;7.75;7.75;;;;;;;;4956539;28;45587;-78
2022/08/12 00:49:11;;;;;;;;;9.00;9.00;;;;;;;;4956534;28;47241;-78
2022/08/12 00:54:22;;;;;;;;;8.25;8.25;;;;;;;;4957038;28;45365;-78
2022/08/12 00:56:48;;;;;;;;;8.50;8.50;;;;;;;;4956860;28;45259;-78
2022/08/12 00:59:14;;;;;;;;;8.25;6.50;;;;;;;;4948692;28;47003;-78
2022/08/12 01:01:42;;;;;;;;;8.75;8.75;;;;;;;;4950943;28;45413;-78
2022/08/12 01:12:22;;;;;;;;;7.50;7.50;;;;;;;;4956321;28;45641;-78
2022/08/12 01:14:47;;;;;;;;;8.75;8.75;;;;;;;;4956712;28;45398;-78
2022/08/12 01:17:13;;;;;;;;;8.25;7.75;;;;;;;;4956325;28;45311;-78
2022/08/12 01:19:39;;;;;;;;;9.00;8.25;;;;;;;;4956467;28;45879;-78
2022/08/12 01:22:33;;;;;;;;;8.00;8.00;;;;;;;;4956826;28;45437;-78
2022/08/12 01:25:13;;;;;;;;;7.75;7.75;;;;;;;;4956620;28;45490;-78
2022/08/12 01:27:39;;;;;;;;;8.25;8.25;;;;;;;;4942630;28;45312;-78
2022/08/12 01:30:06;;;;;;;;;9.00;8.25;;;;;;;;4956387;28;46091;-79
2022/08/12 01:32:36;;;;;;;;;8.00;8.00;;;;;;;;4955512;28;45765;-78
2022/08/12 01:35:02;;;;;;;;;9.00;9.00;;;;;;;;4947883;28;45484;-78
2022/08/12 01:37:29;;;;;;;;;8.00;8.00;;;;;;;;4956186;28;45479;-78
2022/08/12 01:39:56;;;;;;;;;8.00;8.00;;;;;;;;4956047;28;47309;-78
2022/08/12 01:42:21;;;;;;;;;9.25;8.50;;;;;;;;4956234;28;45470;-78
2022/08/12 01:44:48;;;;;;;;;11.25;10.25;;;;;;;;4955798;28;45446;-77
2022/08/12 01:47:19;;;;;;;;;7.50;7.50;;;;;;;;4963426;28;45405;-78
2022/08/12 01:50:04;;;;;;;;;8.50;8.50;;;;;;;;4956348;28;45365;-78
2022/08/12 01:52:38;;;;;;;;;7.00;7.00;;;;;;;;4956187;28;45299;-78
2022/08/12 01:55:05;;;;;;;;;9.50;9.50;;;;;;;;4951071;28;45464;-78
2022/08/12 01:57:38;;;;;;;;;11.50;10.50;;;;;;;;4955737;28;45476;-78
2022/08/12 02:00:11;;;;;;;;;9.75;9.25;;;;;;;;4955389;28;45464;-78
2022/08/12 02:02:45;;;;;;;;;8.50;8.50;;;;;;;;4954373;28;45451;-78
2022/08/12 02:11:18;;;;;;;;;7.25;7.25;;;;;;;;4958975;28;45799;-79
2022/08/12 02:13:54;;;;;;;;;9.00;9.00;;;;;;;;4958849;28;45337;-78
2022/08/12 02:16:29;;;;;;;;;9.25;8.50;;;;;;;;4958643;28;45461;-78
2022/08/12 02:18:54;;;;;;;;;11.00;8.75;;;;;;;;4946846;28;45345;-79
2022/08/12 02:21:45;;;;;;;;;7.00;7.00;;;;;;;;4957103;28;46313;-77
2022/08/12 02:24:14;;;;;;;;;10.00;10.00;;;;;;;;4959690;28;45344;-79
2022/08/12 02:26:41;;;;;;;;;9.00;9.00;;;;;;;;4946090;28;45384;-78
2022/08/12 02:29:07;;;;;;;;;9.50;9.50;;;;;;;;4959001;28;45360;-79
2022/08/12 02:31:33;;;;;;;;;8.25;8.25;;;;;;;;4958353;28;46140;-78
2022/08/12 02:34:00;;;;;;;;;6.75;6.75;;;;;;;;4959122;28;45375;-78
2022/08/12 02:36:26;;;;;;;;;9.25;9.25;;;;;;;;4958513;28;45212;-78
2022/08/12 02:38:52;;;;;;;;;10.00;10.00;;;;;;;;4958734;28;45546;-78
2022/08/12 02:41:20;;;;;;;;;11.75;9.25;;;;;;;;4958520;28;47257;-77
2022/08/12 02:43:49;;;;;;;;;8.50;8.50;;;;;;;;4958088;28;45338;-78
2022/08/12 02:46:17;;;;;;;;;8.25;8.25;;;;;;;;4958831;28;45339;-78
2022/08/12 02:48:49;;;;;;;;;8.50;8.50;;;;;;;;4958559;28;45414;-78
2022/08/12 02:51:18;;;;;;;;;8.75;8.75;;;;;;;;4958553;28;47234;-78
2022/08/12 02:53:43;;;;;;;;;10.00;10.00;;;;;;;;4958388;28;45461;-78
2022/08/12 02:56:09;;;;;;;;;9.00;9.00;;;;;;;;4955052;28;45321;-77
2022/08/12 02:58:35;;;;;;;;;8.75;8.75;;;;;;;;4958336;28;45338;-77
2022/08/12 03:01:02;;;;;;;;;9.00;9.00;;;;;;;;4958483;28;46312;-77
2022/08/12 03:03:31;;;;;;;;;7.75;7.75;;;;;;;;4958201;28;45495;-78
2022/08/12 03:05:58;;;;;;;;;8.25;7.50;;;;;;;;4958673;28;45490;-78
2022/08/12 03:08:28;;;;;;;;;8.25;8.25;;;;;;;;4958299;28;45546;-78
2022/08/12 03:10:56;;;;;;;;;9.00;9.00;;;;;;;;4957967;28;46236;-79
2022/08/12 03:13:25;;;;;;;;;8.75;8.75;;;;;;;;4957877;28;45405;-79
2022/08/12 03:15:52;;;;;;;;;9.50;9.50;;;;;;;;4958341;28;45393;-79
2022/08/12 03:18:23;;;;;;;;;10.50;10.50;;;;;;;;4957036;28;45458;-78
2022/08/12 03:20:49;;;;;;;;;11.00;9.50;;;;;;;;4957747;28;46059;-79
2022/08/12 03:23:14;;;;;;;;;6.75;6.75;;;;;;;;4958320;28;45403;-78
2022/08/12 03:25:41;;;;;;;;;8.50;7.25;;;;;;;;4958306;28;45306;-80
2022/08/12 03:28:10;;;;;;;;;10.25;10.25;;;;;;;;4955915;28;45414;-79
2022/08/12 03:30:36;;;;;;;;;10.25;9.25;;;;;;;;4957913;28;45414;-79
2022/08/12 03:33:03;;;;;;;;;9.50;9.50;;;;;;;;4957671;28;45675;-77
2022/08/12 03:35:29;;;;;;;;;8.00;8.00;;;;;;;;4957720;28;45519;-79
2022/08/12 03:38:01;;;;;;;;;9.00;9.00;;;;;;;;4957166;28;45375;-78
2022/08/12 04:02:27;;;;;;;;;9.25;9.00;;;;;;;;4952893;28;45924;-78
2022/08/12 04:04:52;;;;;;;;;8.75;8.75;;;;;;;;4957541;28;45409;-78
2022/08/12 04:07:17;;;;;;;;;8.00;8.00;;;;;;;;4957718;28;45382;-78
2022/08/12 04:09:44;;;;;;;;;7.25;7.25;;;;;;;;4957469;28;45390;-79
2022/08/12 04:14:57;;;;;;;;;9.25;8.25;;;;;;;;4956971;28;45504;-78
2022/08/12 04:17:23;;;;;;;;;9.75;8.00;;;;;;;;4956042;28;45262;-78
2022/08/12 04:19:49;;;;;;;;;8.75;8.25;;;;;;;;4957187;28;45480;-79
2022/08/12 04:22:14;;;;;;;;;8.00;8.00;;;;;;;;4957330;28;45942;-79
2022/08/12 04:24:40;;;;;;;;;8.25;8.25;;;;;;;;4957431;28;45251;-78
2022/08/12 04:27:07;;;;;;;;;10.00;10.00;;;;;;;;4957260;28;45389;-78
2022/08/12 04:29:33;;;;;;;;;7.50;7.50;;;;;;;;4956281;28;45311;-79
2022/08/12 04:31:59;;;;;;;;;10.50;10.50;;;;;;;;4957035;28;47086;-78
2022/08/12 04:34:24;;;;;;;;;8.50;8.50;;;;;;;;4956539;28;45405;-78
2022/08/12 04:36:50;;;;;;;;;7.75;7.75;;;;;;;;4957001;28;45448;-78
2022/08/12 04:39:16;;;;;;;;;6.25;6.25;;;;;;;;4956601;28;45371;-78
2022/08/12 04:41:41;;;;;;;;;7.25;7.25;;;;;;;;4956621;28;46311;-78
2022/08/12 04:44:07;;;;;;;;;9.00;9.00;;;;;;;;4951876;28;45480;-78
2022/08/12 04:46:32;;;;;;;;;7.67;7.67;;;;;;;;4952893;28;45407;-79
2022/08/12 04:48:59;;;;;;;;;7.25;7.25;;;;;;;;4956883;28;45469;-78
2022/08/12 04:51:24;;;;;;;;;8.25;8.25;;;;;;;;4956861;28;47015;-79
2022/08/12 04:53:50;;;;;;;;;8.25;8.25;;;;;;;;4956894;28;45339;-78
2022/08/12 04:56:16;;;;;;;;;7.50;7.50;;;;;;;;4956679;28;45393;-77
2022/08/12 04:58:41;;;;;;;;;9.25;7.00;;;;;;;;4956772;28;45339;-79
2022/08/12 05:01:07;;;;;;;;;8.75;8.75;;;;;;;;4956440;28;47082;-79
2022/08/12 05:03:34;;;;;;;;;9.75;8.75;;;;;;;;4956437;28;45358;-78
2022/08/12 05:05:59;;;;;;;;;9.25;9.25;;;;;;;;4945931;28;45458;-79
2022/08/12 05:08:25;;;;;;;;;7.75;7.50;;;;;;;;4956634;28;45386;-79
2022/08/12 05:10:51;;;;;;;;;10.00;10.00;;;;;;;;4956129;28;46339;-77
2022/08/12 05:13:19;;;;;;;;;8.00;8.00;;;;;;;;4956603;28;45408;-78
2022/08/12 05:15:44;;;;;;;;;7.25;7.25;;;;;;;;4956598;28;45293;-78
2022/08/12 05:18:10;;;;;;;;;7.25;7.25;;;;;;;;4956652;28;45343;-78
2022/08/12 05:20:36;;;;;;;;;9.00;8.25;;;;;;;;4956657;28;46367;-78
2022/08/12 05:23:05;;;;;;;;;9.75;8.75;;;;;;;;4955824;28;45855;-77
2022/08/12 05:25:30;;;;;;;;;8.00;8.00;;;;;;;;4956452;28;45362;-78
2022/08/12 05:27:56;;;;;;;;;10.25;9.75;;;;;;;;4956376;28;45303;-79
2022/08/12 05:30:21;;;;;;;;;7.25;7.25;;;;;;;;4956401;28;45400;-78
2022/08/12 05:32:47;;;;;;;;;7.50;7.50;;;;;;;;4956143;28;45381;-79
2022/08/12 05:35:14;;;;;;;;;11.00;9.25;;;;;;;;4956461;28;45435;-78
2022/08/12 05:37:39;;;;;;;;;10.75;10.00;;;;;;;;4956403;28;45503;-78
2022/08/12 05:40:05;;;;;;;;;8.00;8.00;;;;;;;;4955390;28;46131;-78
2022/08/12 05:42:31;;;;;;;;;7.75;6.75;;;;;;;;4957962;28;46370;-78
2022/08/12 05:44:56;;;;;;;;;9.00;9.00;;;;;;;;4959546;28;45653;-78
2022/08/12 05:47:22;;;;;;;;;7.50;7.50;;;;;;;;4959724;28;45370;-78
2022/08/12 05:49:47;;;;;;;;;9.00;8.50;;;;;;;;4959136;28;47032;-78
2022/08/12 05:52:12;;;;;;;;;7.75;7.75;;;;;;;;4959401;28;45354;-77
2022/08/12 05:54:42;;;;;;;;;7.00;7.00;;;;;;;;4960024;28;45319;-78
2022/08/12 05:57:10;;;;;;;;;9.75;8.75;;;;;;;;4959594;28;45299;-78
2022/08/12 05:59:36;;;;;;;;;10.25;10.25;;;;;;;;4959318;28;47205;-78
2022/08/12 06:02:06;;;;;;;;;8.75;8.00;;;;;;;;4960242;28;45744;-79
2022/08/12 06:04:32;;;;;;;;;7.00;7.00;;;;;;;;4950064;28;45372;-79
2022/08/12 06:06:57;;;;;;;;;9.00;9.00;;;;;;;;4958785;28;45359;-79
2022/08/12 06:09:24;;;;;;;;;9.50;9.50;;;;;;;;4958401;28;45509;-78
2022/08/12 06:11:50;;;;;;;;;10.00;9.00;;;;;;;;4959265;28;45343;-78
2022/08/12 06:14:15;;;;;;;;;8.75;8.75;;;;;;;;4958997;28;45316;-78
2022/08/12 06:16:42;;;;;;;;;10.75;10.00;;;;;;;;4959356;28;45659;-78
2022/08/12 06:19:09;;;;;;;;;8.00;8.00;;;;;;;;4958999;28;46284;-78
2022/08/12 06:21:36;;;;;;;;;9.25;8.50;;;;;;;;4958696;28;45446;-78
2022/08/12 06:24:02;;;;;;;;;10.50;10.50;;;;;;;;4959234;28;45271;-79
2022/08/12 06:26:27;;;;;;;;;8.00;7.00;;;;;;;;4958686;28;45294;-78
2022/08/12 06:28:53;;;;;;;;;7.75;7.75;;;;;;;;4958996;28;46306;-79
2022/08/12 06:31:18;;;;;;;;;8.25;8.25;;;;;;;;4959078;28;45285;-78
2022/08/12 06:33:45;;;;;;;;;9.00;9.00;;;;;;;;4959025;28;45259;-79
2022/08/12 06:36:12;;;;;;;;;11.25;10.25;;;;;;;;4958311;28;45293;-78
2022/08/12 06:38:38;;;;;;;;;9.75;9.75;;;;;;;;4958697;28;47227;-79
2022/08/12 06:43:50;;;;;;;;;10.25;10.00;;;;;;;;4955809;28;45426;-78
2022/08/12 06:46:15;;;;;;;;;8.00;8.00;;;;;;;;4958517;28;45390;-79
2022/08/12 06:48:43;;;;;;;;;7.50;7.50;;;;;;;;4958053;28;46093;-79
2022/08/12 06:51:09;;;;;;;;;8.00;8.00;;;;;;;;4958334;28;45263;-79
2022/08/12 06:53:34;;;;;;;;;5.50;5.50;;;;;;;;4958377;28;45293;-78
2022/08/12 06:56:00;;;;;;;;;11.50;9.00;;;;;;;;4959508;28;45264;-77
2022/08/12 06:58:26;;;;;;;;;8.75;8.75;;;;;;;;4960125;28;47004;-78
2022/08/12 07:00:52;;;;;;;;;7.75;7.75;;;;;;;;4952364;28;45398;-79
2022/08/12 07:03:26;;;;;;;;;7.50;7.50;;;;;;;;4956180;28;45385;-78
2022/08/12 07:05:51;;;;;;;;;9.75;9.00;;;;;;;;4958378;28;45279;-78
2022/08/12 07:08:17;;;;;;;;;7.75;7.75;;;;;;;;4958240;28;47275;-77
2022/08/12 07:10:44;;;;;;;;;8.75;8.75;;;;;;;;4960448;28;45337;-79
2022/08/12 07:13:09;;;;;;;;;8.25;8.25;;;;;;;;4967547;28;45298;-78
2022/08/12 07:15:35;;;;;;;;;8.00;6.50;;;;;;;;4957929;28;45626;-78
2022/08/12 07:20:34;;;;;;;;;6.25;6.25;;;;;;;;4957978;28;45346;-78
2022/08/12 07:23:00;;;;;;;;;7.50;7.50;;;;;;;;4958144;28;45450;-78
2022/08/12 07:25:31;;;;;;;;;8.25;8.25;;;;;;;;4958116;28;45538;-78
2022/08/12 07:28:02;;;;;;;;;11.75;10.00;;;;;;;;4957778;28;46105;-78
2022/08/12 07:30:29;;;;;;;;;11.50;9.75;;;;;;;;4958160;28;45325;-78
2022/08/12 07:32:54;;;;;;;;;9.25;9.25;;;;;;;;4958029;28;45236;-78
2022/08/12 07:35:19;;;;;;;;;7.50;7.50;;;;;;;;4956421;28;45410;-78
2022/08/12 07:37:46;;;;;;;;;9.25;9.25;;;;;;;;4957772;28;46236;-79
2022/08/12 07:40:11;;;;;;;;;8.00;8.00;;;;;;;;4957778;28;45422;-78
2022/08/12 07:42:38;;;;;;;;;8.75;8.75;;;;;;;;4957396;28;45338;-78
2022/08/12 07:45:03;;;;;;;;;8.00;8.00;;;;;;;;4957970;28;45249;-78
2022/08/12 07:47:29;;;;;;;;;8.75;8.75;;;;;;;;4957637;28;46137;-78
2022/08/12 07:49:55;;;;;;;;;10.50;8.50;;;;;;;;4956969;28;45571;-78
2022/08/12 07:52:20;;;;;;;;;6.25;6.25;;;;;;;;4957767;28;45378;-78
2022/08/12 07:54:46;;;;;;;;;8.00;7.75;;;;;;;;4957097;28;45448;-78
2022/08/12 07:57:13;;;;;;;;;7.25;7.25;;;;;;;;4957423;28;46933;-78
2022/08/12 07:59:38;;;;;;;;;10.25;9.25;;;;;;;;4957286;28;45445;-80
2022/08/12 08:02:04;;;;;;;;;8.25;8.25;;;;;;;;4957795;28;45295;-78
2022/08/12 08:07:14;;;;;;;;;6.00;6.00;;;;;;;;4957701;28;45450;-78
2022/08/12 08:09:40;;;;;;;;;11.50;10.00;;;;;;;;4957027;28;45362;-78
2022/08/12 08:14:51;;;;;;;;;7.00;7.00;;;;;;;;4957506;28;45442;-78
2022/08/12 08:17:17;;;;;;;;;10.00;10.00;;;;;;;;4956815;28;47066;-79
2022/08/12 08:19:42;;;;;;;;;9.75;7.00;;;;;;;;4956993;28;45328;-78
2022/08/12 08:22:09;;;;;;;;;9.00;9.00;;;;;;;;4957498;28;45368;-77
2022/08/12 08:24:34;;;;;;;;;7.50;7.50;;;;;;;;4957179;28;45500;-78
2022/08/12 08:26:59;;;;;;;;;7.75;7.75;;;;;;;;4957037;28;46297;-78
2022/08/12 08:29:25;;;;;;;;;8.25;8.25;;;;;;;;4956999;28;45410;-78
2022/08/12 08:31:57;;;;;;;;;9.75;9.75;;;;;;;;4957183;28;45287;-79
2022/08/12 08:34:25;;;;;;;;;10.50;8.50;;;;;;;;4955466;28;45573;-79
2022/08/12 08:36:50;;;;;;;;;8.50;8.50;;;;;;;;4956252;28;46358;-79
2022/08/12 08:39:16;;;;;;;;;10.00;10.00;;;;;;;;4956561;28;45457;-79
2022/08/12 08:44:25;;;;;;;;;10.25;8.75;;;;;;;;4956957;28;45551;-79
2022/08/12 08:46:50;;;;;;;;;8.25;8.00;;;;;;;;4956367;28;46217;-79
2022/08/12 08:49:16;;;;;;;;;10.50;9.75;;;;;;;;4956959;28;45516;-79
2022/08/12 08:51:43;;;;;;;;;7.75;7.75;;;;;;;;4957232;28;45401;-80
2022/08/12 08:54:11;;;;;;;;;8.00;7.50;;;;;;;;4957192;28;45426;-79
2022/08/12 08:56:42;;;;;;;;;11.25;9.00;;;;;;;;4956605;28;46190;-78
2022/08/12 08:59:10;;;;;;;;;9.00;8.00;;;;;;;;4956671;28;45465;-79
2022/08/12 09:01:35;;;;;;;;;8.25;7.75;;;;;;;;4956481;28;45330;-79
2022/08/12 09:04:00;;;;;;;;;9.50;9.50;;;;;;;;4956608;28;45324;-80
2022/08/12 09:06:25;;;;;;;;;8.00;8.00;;;;;;;;4956788;28;46080;-79
2022/08/12 09:08:51;;;;;;;;;11.00;10.25;;;;;;;;4956643;28;45609;-79
2022/08/12 09:14:00;;;;;;;;;8.50;8.50;;;;;;;;4956634;28;45299;-78
2022/08/12 09:16:25;;;;;;;;;8.00;8.00;;;;;;;;4958132;28;46648;-79
2022/08/12 09:18:50;;;;;;;;;8.75;8.75;;;;;;;;4960227;28;45361;-79
2022/08/12 09:21:15;;;;;;;;;6.75;6.75;;;;;;;;4960294;28;45218;-79
2022/08/12 09:23:41;;;;;;;;;7.00;7.00;;;;;;;;4969568;28;45331;-79
2022/08/12 09:26:08;;;;;;;;;6.00;6.00;;;;;;;;4964183;28;46078;-79
2022/08/12 09:28:34;;;;;;;;;7.25;7.00;;;;;;;;4952594;28;45394;-79
2022/08/12 09:31:00;;;;;;;;;8.25;8.25;;;;;;;;4940565;28;45438;-79
2022/08/12 09:33:29;;;;;;;;;8.00;8.00;;;;;;;;4959807;28;45468;-78
2022/08/12 09:35:54;;;;;;;;;7.75;7.75;;;;;;;;4959085;28;46699;-78
2022/08/12 09:38:19;;;;;;;;;6.50;6.25;;;;;;;;4957212;28;46197;-79
2022/08/12 09:40:46;;;;;;;;;11.75;9.75;;;;;;;;4960193;28;45314;-79
2022/08/12 09:45:57;;;;;;;;;8.75;8.75;;;;;;;;4959397;28;45442;-79
2022/08/12 09:48:23;;;;;;;;;6.75;6.75;;;;;;;;4974331;28;45394;-78
2022/08/12 09:50:49;;;;;;;;;8.50;8.50;;;;;;;;4958557;28;45425;-78
2022/08/12 09:53:16;;;;;;;;;6.25;6.25;;;;;;;;4959628;28;45482;-79
2022/08/12 09:55:42;;;;;;;;;10.00;9.00;;;;;;;;4959050;28;46991;-79
2022/08/12 09:58:07;;;;;;;;;7.75;7.75;;;;;;;;4959218;28;45299;-79
2022/08/12 10:00:35;;;;;;;;;7.50;7.50;;;;;;;;4959136;28;45353;-78
2022/08/12 10:03:09;;;;;;;;;9.50;9.50;;;;;;;;4959441;28;45497;-78
2022/08/12 10:05:37;;;;;;;;;8.50;7.75;;;;;;;;4958926;28;46116;-78
2022/08/12 10:08:03;;;;;;;;;9.00;8.00;;;;;;;;4959342;28;45307;-79
2022/08/12 10:10:28;;;;;;;;;7.50;7.50;;;;;;;;4958942;28;45410;-78
2022/08/12 10:15:43;;;;;;;;;7.25;7.25;;;;;;;;4958235;28;45824;-79
2022/08/12 10:18:09;;;;;;;;;6.25;6.25;;;;;;;;4959244;28;45374;-79
2022/08/12 10:20:34;;;;;;;;;7.00;7.00;;;;;;;;4959545;28;45280;-79
2022/08/12 10:23:00;;;;;;;;;9.00;9.00;;;;;;;;4958713;28;45363;-79
2022/08/12 10:30:53;;;;;;;;;9.00;8.75;;;;;;;;4959305;28;45254;-78
2022/08/12 10:33:18;;;;;;;;;7.50;7.50;;;;;;;;4958959;28;45550;-78
2022/08/12 10:35:43;;;;;;;;;6.50;6.50;;;;;;;;4955040;28;46073;-78
2022/08/12 10:38:10;;;;;;;;;8.50;8.50;;;;;;;;4956458;28;45347;-78
2022/08/12 10:43:39;;;;;;;;;7.00;7.00;;;;;;;;4958727;28;45242;-78
2022/08/12 10:46:06;;;;;;;;;8.50;8.50;;;;;;;;4951119;28;45277;-79
2022/08/12 10:48:31;;;;;;;;;7.25;7.25;;;;;;;;4973533;28;45368;-79
2022/08/12 10:50:57;;;;;;;;;7.75;7.00;;;;;;;;4958854;28;45271;-79
2022/08/12 10:53:23;;;;;;;;;6.33;6.33;;;;;;;;4958769;28;45313;-78
2022/08/12 10:55:50;;;;;;;;;8.00;8.00;;;;;;;;4958767;28;46165;-78
2022/08/12 10:58:15;;;;;;;;;6.33;6.33;;;;;;;;4958039;28;45450;-78
2022/08/12 11:00:41;;;;;;;;;7.00;6.50;;;;;;;;4958892;28;45354;-78
2022/08/12 11:03:06;;;;;;;;;7.50;7.50;;;;;;;;4958636;28;45382;-79
2022/08/12 11:05:33;;;;;;;;;6.00;6.00;;;;;;;;4958409;28;46944;-79
2022/08/12 11:08:00;;;;;;;;;6.67;6.67;;;;;;;;4958681;28;45556;-79
2022/08/12 11:10:25;;;;;;;;;8.75;7.25;;;;;;;;4957674;28;45296;-79
2022/08/12 11:12:53;;;;;;;;;6.75;6.75;;;;;;;;4966305;28;45334;-79
2022/08/12 11:15:22;;;;;;;;;11.25;8.75;;;;;;;;4963092;28;47102;-79
2022/08/12 11:17:47;;;;;;;;;9.00;9.00;;;;;;;;4958421;28;45298;-79
2022/08/12 11:20:13;;;;;;;;;7.00;7.00;;;;;;;;4958294;28;45279;-79
2022/08/12 11:22:38;;;;;;;;;7.25;7.25;;;;;;;;4958284;28;45324;-80
2022/08/12 11:25:06;;;;;;;;;8.00;8.00;;;;;;;;4958251;28;46091;-79
2022/08/12 11:27:32;;;;;;;;;9.25;9.00;;;;;;;;4957666;28;45452;-79
2022/08/12 11:29:57;;;;;;;;;6.50;6.50;;;;;;;;4958224;28;45486;-79
2022/08/12 11:32:22;;;;;;;;;7.75;7.75;;;;;;;;4958480;28;45827;-79
2022/08/12 11:34:47;;;;;;;;;9.00;8.00;;;;;;;;4960764;28;46811;-79
2022/08/12 11:37:12;;;;;;;;;7.75;7.75;;;;;;;;4958092;28;45381;-79
2022/08/12 11:39:38;;;;;;;;;7.00;6.00;;;;;;;;4956892;28;45382;-79
2022/08/12 11:42:03;;;;;;;;;7.75;7.75;;;;;;;;4957905;28;45560;-80
2022/08/12 11:44:29;;;;;;;;;8.25;8.25;;;;;;;;4957871;28;46076;-79
2022/08/12 11:46:54;;;;;;;;;6.33;6.33;;;;;;;;4957531;28;45431;-79
2022/08/12 11:49:24;;;;;;;;;8.50;8.25;;;;;;;;4957977;28;45332;-80
2022/08/12 11:51:49;;;;;;;;;7.50;7.50;;;;;;;;4957343;28;45385;-79
2022/08/12 11:54:14;;;;;;;;;7.50;6.50;;;;;;;;4957329;28;45391;-79
2022/08/12 11:56:40;;;;;;;;;7.25;7.25;;;;;;;;4943902;28;46395;-79
2022/08/12 11:59:05;;;;;;;;;8.25;7.00;;;;;;;;4957608;28;45562;-79
2022/08/12 12:01:39;;;;;;;;;7.00;7.00;;;;;;;;5130830;27;45359;-79
2022/08/12 12:04:05;;;;;;;;;6.75;6.75;;;;;;;;5106358;27;45270;-78
2022/08/12 12:06:30;;;;;;;;;6.25;6.25;;;;;;;;5133984;27;45460;-79
2022/08/12 12:08:55;;;;;;;;;6.75;6.75;;;;;;;;5134500;27;45341;-79
2022/08/12 12:11:21;;;;;;;;;9.75;7.25;;;;;;;;5131634;27;47225;-78
2022/08/12 12:13:46;;;;;;;;;8.25;6.75;;;;;;;;5118177;27;45926;-78
2022/08/12 12:16:11;;;;;;;;;6.50;6.50;;;;;;;;5124770;27;45360;-78
2022/08/12 12:18:36;;;;;;;;;6.25;6.25;;;;;;;;5134708;27;45353;-78
2022/08/12 12:21:04;;;;;;;;;5.33;5.33;;;;;;;;5130557;27;46414;-79
2022/08/12 12:23:29;;;;;;;;;8.25;8.25;;;;;;;;5121796;27;45781;-79
2022/08/12 12:25:55;;;;;;;;;5.75;5.75;;;;;;;;5133778;27;45281;-78
2022/08/12 12:28:20;;;;;;;;;6.00;6.00;;;;;;;;5134195;27;45526;-79
2022/08/12 12:30:45;;;;;;;;;6.25;6.25;;;;;;;;5134410;27;47300;-78
2022/08/12 12:33:11;;;;;;;;;8.00;8.00;;;;;;;;5130149;27;45355;-78
2022/08/12 12:35:36;;;;;;;;;6.25;6.25;;;;;;;;5117077;27;45446;-78
2022/08/12 12:38:05;;;;;;;;;7.25;7.25;;;;;;;;5127953;27;45424;-78
2022/08/12 12:40:31;;;;;;;;;7.25;6.75;;;;;;;;5121094;27;46807;-78
2022/08/12 12:42:57;;;;;;;;;5.75;5.75;;;;;;;;5119221;27;45483;-79
2022/08/12 12:45:23;;;;;;;;;6.50;6.50;;;;;;;;5125373;27;45425;-79
2022/08/12 12:48:07;;;;;;;;;6.50;6.50;;;;;;;;5125656;27;45351;-78
2022/08/12 12:50:35;;;;;;;;;8.50;8.50;;;;;;;;5133928;27;46069;-79
2022/08/12 12:53:01;;;;;;;;;6.50;6.50;;;;;;;;5129731;27;45475;-78
2022/08/12 12:55:26;;;;;;;;;6.50;6.50;;;;;;;;5133486;27;45270;-79
2022/08/12 12:57:52;;;;;;;;;6.75;6.00;;;;;;;;5134254;27;45305;-78
2022/08/12 13:00:18;;;;;;;;;7.00;7.00;;;;;;;;5121770;27;46215;-79
2022/08/12 13:03:05;;;;;;;;;8.33;8.33;;;;;;;;5101439;27;45311;-78
2022/08/12 13:05:35;;;;;;;;;6.67;6.67;;;;;;;;5111159;27;45468;-79
2022/08/12 13:08:02;;;;;;;;;7.00;7.00;;;;;;;;5112704;27;45285;-78
2022/08/12 13:10:28;;;;;;;;;6.00;6.00;;;;;;;;5105213;27;47167;-78
2022/08/12 13:12:53;;;;;;;;;7.50;7.50;;;;;;;;5099491;27;45433;-78
2022/08/12 13:15:19;;;;;;;;;6.25;6.25;;;;;;;;5095881;27;45397;-78
2022/08/12 13:17:46;;;;;;;;;8.00;8.00;;;;;;;;5098999;27;45415;-78
2022/08/12 13:20:12;;;;;;;;;6.25;6.25;;;;;;;;5090035;27;46121;-79
2022/08/12 13:22:38;;;;;;;;;7.25;7.25;;;;;;;;5084260;27;45402;-78
2022/08/12 13:25:03;;;;;;;;;6.00;6.00;;;;;;;;5098658;27;45347;-79
2022/08/12 13:27:33;;;;;;;;;7.00;7.00;;;;;;;;5085725;27;45309;-79
2022/08/12 13:29:58;;;;;;;;;7.00;7.00;;;;;;;;5098022;27;46245;-79
2022/08/12 13:32:24;;;;;;;;;6.00;6.00;;;;;;;;5095253;27;45303;-79
2022/08/12 13:34:52;;;;;;;;;6.25;5.50;;;;;;;;5089533;27;45399;-78
2022/08/12 13:37:23;;;;;;;;;7.67;7.67;;;;;;;;5078930;27;45300;-78
2022/08/12 13:39:49;;;;;;;;;5.25;5.25;;;;;;;;5094701;27;47143;-78
2022/08/12 13:42:15;;;;;;;;;6.75;6.75;;;;;;;;5093671;27;45352;-79
2022/08/12 13:44:40;;;;;;;;;7.00;7.00;;;;;;;;5098413;27;45356;-78
2022/08/12 13:47:06;;;;;;;;;6.50;5.75;;;;;;;;5098522;27;45308;-79
2022/08/12 13:49:32;;;;;;;;;7.75;7.75;;;;;;;;5098096;27;46864;-78
2022/08/12 13:51:57;;;;;;;;;6.33;6.33;;;;;;;;5097635;27;45372;-79
2022/08/12 13:54:22;;;;;;;;;6.75;6.75;;;;;;;;5080084;27;45316;-79
2022/08/12 13:56:48;;;;;;;;;6.00;6.00;;;;;;;;5098266;27;45490;-79
2022/08/12 13:59:13;;;;;;;;;7.25;7.25;;;;;;;;5092057;27;47145;-77
2022/08/12 14:01:39;;;;;;;;;6.50;6.50;;;;;;;;5098187;27;45263;-79
2022/08/12 14:04:04;;;;;;;;;6.25;6.25;;;;;;;;5097753;27;45398;-78
2022/08/12 14:06:30;;;;;;;;;7.25;5.25;;;;;;;;5097628;27;45354;-79
2022/08/12 14:08:55;;;;;;;;;4.33;4.33;;;;;;;;5097522;27;45212;-79
2022/08/12 14:11:21;;;;;;;;;5.25;5.25;;;;;;;;5098086;27;45532;-79
2022/08/12 14:13:47;;;;;;;;;6.00;6.00;;;;;;;;5097860;27;45481;-79
2022/08/12 14:16:16;;;;;;;;;7.00;7.00;;;;;;;;5096180;27;45311;-78
2022/08/12 14:18:43;;;;;;;;;9.25;6.75;;;;;;;;5092039;27;46271;-79
2022/08/12 14:21:09;;;;;;;;;7.50;6.25;;;;;;;;5097212;27;45314;-78
2022/08/12 14:23:38;;;;;;;;;6.00;6.00;;;;;;;;5097008;27;45356;-79
2022/08/12 14:26:10;;;;;;;;;8.00;8.00;;;;;;;;5097654;27;45401;-78
2022/08/12 14:28:36;;;;;;;;;6.00;6.00;;;;;;;;5097867;27;46170;-79
2022/08/12 14:31:01;;;;;;;;;5.50;5.50;;;;;;;;5079367;27;45703;-79
2022/08/12 14:33:28;;;;;;;;;6.75;6.25;;;;;;;;5097827;27;45280;-78
2022/08/12 14:35:54;;;;;;;;;10.00;9.00;;;;;;;;5097054;27;45352;-79
2022/08/12 14:38:21;;;;;;;;;8.75;8.75;;;;;;;;5097570;27;47141;-79
2022/08/12 14:40:51;;;;;;;;;4.00;4.00;;;;;;;;5097494;27;45283;-79
2022/08/12 14:43:16;;;;;;;;;5.25;5.25;;;;;;;;5097763;27;45344;-79
2022/08/12 14:45:42;;;;;;;;;8.00;6.67;;;;;;;;5097423;27;45367;-79
2022/08/12 14:48:08;;;;;;;;;5.00;5.00;;;;;;;;5096990;27;46285;-79
2022/08/12 14:50:33;;;;;;;;;4.33;4.33;;;;;;;;5097243;27;45394;-79
2022/08/12 14:52:58;;;;;;;;;6.67;6.67;;;;;;;;5105636;27;45397;-79
2022/08/12 14:55:32;;;;;;;;;6.00;6.00;;;;;;;;5098890;27;45476;-79
2022/08/12 14:57:58;;;;;;;;;6.00;6.00;;;;;;;;5097283;27;46233;-79
2022/08/12 15:03:08;;;;;;;;;5.00;5.00;;;;;;;;5089805;27;45343;-79
2022/08/12 15:05:37;;;;;;;;;6.25;5.25;;;;;;;;5099473;27;45483;-79
2022/08/12 15:08:12;;;;;;;;;6.75;6.75;;;;;;;;5078865;27;48450;-79
2022/08/12 15:10:38;;;;;;;;;4.25;4.25;;;;;;;;5096954;27;45477;-79
2022/08/12 15:13:05;;;;;;;;;5.00;5.00;;;;;;;;5097006;27;45344;-79
2022/08/12 15:15:31;;;;;;;;;7.33;7.00;;;;;;;;5097985;27;45299;-79
2022/08/12 15:17:59;;;;;;;;;5.00;5.00;;;;;;;;5094681;27;46988;-78
2022/08/12 15:20:25;;;;;;;;;6.00;6.00;;;;;;;;5096965;27;45382;-79
2022/08/12 15:22:50;;;;;;;;;6.25;5.50;;;;;;;;5096937;27;45432;-79
2022/08/12 15:25:16;;;;;;;;;7.00;7.00;;;;;;;;5096971;27;45453;-80
2022/08/12 15:27:42;;;;;;;;;6.00;6.00;;;;;;;;5096862;27;46166;-80
2022/08/12 15:30:07;;;;;;;;;7.50;7.50;;;;;;;;5097085;27;45371;-79
2022/08/12 15:32:32;;;;;;;;;5.00;5.00;;;;;;;;5096775;27;45272;-79
2022/08/12 15:34:59;;;;;;;;;5.75;5.75;;;;;;;;5096429;27;45513;-78
2022/08/12 15:37:27;;;;;;;;;6.50;6.50;;;;;;;;5096542;27;47076;-79
2022/08/12 15:39:52;;;;;;;;;5.00;5.00;;;;;;;;5096244;27;45320;-79
2022/08/12 15:42:18;;;;;;;;;5.50;5.50;;;;;;;;5097068;27;45415;-79
2022/08/12 15:44:43;;;;;;;;;4.75;4.75;;;;;;;;5096454;27;45499;-78
2022/08/12 15:47:08;;;;;;;;;4.50;4.00;;;;;;;;5096240;27;46068;-78
2022/08/12 15:49:36;;;;;;;;;5.00;5.00;;;;;;;;5096548;27;45400;-78
2022/08/12 15:52:01;;;;;;;;;8.00;6.75;;;;;;;;5096588;27;45410;-79
2022/08/12 15:54:26;;;;;;;;;7.00;7.00;;;;;;;;5105029;27;45523;-78
2022/08/12 15:56:53;;;;;;;;;6.00;6.00;;;;;;;;5096284;27;46104;-79
2022/08/12 15:59:19;;;;;;;;;6.00;6.00;;;;;;;;5095525;27;45379;-79
2022/08/12 16:01:45;;;;;;;;;5.50;5.50;;;;;;;;5086709;27;45383;-79
2022/08/12 16:04:11;;;;;;;;;7.25;6.25;;;;;;;;5096522;27;45225;-78
2022/08/12 16:06:37;;;;;;;;;7.00;7.00;;;;;;;;5096489;27;46010;-79
2022/08/12 16:09:02;;;;;;;;;5.00;5.00;;;;;;;;5096256;27;45317;-79
2022/08/12 16:11:27;;;;;;;;;5.50;4.75;;;;;;;;5089138;27;45449;-79
2022/08/12 16:13:52;;;;;;;;;7.00;7.00;;;;;;;;5095517;27;45508;-78
2022/08/12 16:16:17;;;;;;;;;7.25;7.25;;;;;;;;5091123;27;45311;-78
2022/08/12 16:18:43;;;;;;;;;5.67;5.67;;;;;;;;5083918;27;45458;-78
2022/08/12 16:21:09;;;;;;;;;5.25;5.25;;;;;;;;5090230;27;45509;-78
2022/08/12 16:23:35;;;;;;;;;4.33;4.33;;;;;;;;5084272;27;45509;-78
2022/08/12 16:26:02;;;;;;;;;7.75;7.75;;;;;;;;5096045;27;46186;-77
2022/08/12 16:28:28;;;;;;;;;4.00;4.00;;;;;;;;5096393;27;45641;-78
2022/08/12 16:30:53;;;;;;;;;5.67;5.67;;;;;;;;5095969;27;45287;-78
2022/08/12 16:33:18;;;;;;;;;6.00;6.00;;;;;;;;5096213;27;45255;-77
2022/08/12 16:35:48;;;;;;;;;5.33;5.33;;;;;;;;5088419;27;45339;-78